Time;durP1;ratioP1;P1;durP2;ratioP2;P2;SDS_P1;SDS_P2;PMS_P1;PMS_P2;Temp;Humidity;BMP_temperature;BMP_pressure;BME280_temperature;BME280_humidity;BME280_pressure;Samples;Min_cycle;Max_cycle;Signal;HPM_P1;HPM_P2
2021/10/23 00:00:54;;;;;;;3.58;2.45;;;24.10;33.10;;;;;;6159325;28;80643;-67
2021/10/23 00:03:54;;;;;;;4.15;2.00;;;24.10;33.20;;;;;;6132830;28;81478;-68
2021/10/23 00:06:55;;;;;;;4.32;1.73;;;24.20;33.20;;;;;;6162432;28;80527;-68
2021/10/23 00:09:55;;;;;;;3.25;1.90;;;24.10;33.20;;;;;;6157345;28;80554;-67
2021/10/23 00:12:56;;;;;;;2.35;1.60;;;24.10;33.20;;;;;;6160748;28;80902;-68
2021/10/23 00:15:56;;;;;;;3.40;1.90;;;24.10;33.20;;;;;;6157086;28;81512;-67
2021/10/23 00:18:57;;;;;;;3.22;1.73;;;24.10;33.20;;;;;;6162798;28;81446;-68
2021/10/23 00:21:57;;;;;;;4.85;2.15;;;24.10;33.30;;;;;;6162008;28;80117;-67
2021/10/23 00:25:00;;;;;;;3.45;2.00;;;24.10;33.30;;;;;;6167039;28;80675;-67
2021/10/23 00:28:00;;;;;;;5.95;2.08;;;24.10;33.40;;;;;;6162594;28;81426;-67
2021/10/23 00:31:01;;;;;;;1.95;1.50;;;24.10;33.30;;;;;;6152837;28;80543;-68
2021/10/23 00:34:01;;;;;;;3.45;1.90;;;24.10;33.40;;;;;;6162825;28;80456;-67
2021/10/23 00:37:02;;;;;;;3.03;1.80;;;24.10;33.80;;;;;;6161341;28;80330;-68
2021/10/23 00:40:03;;;;;;;3.80;1.92;;;24.10;34.00;;;;;;6162857;28;80484;-68
2021/10/23 00:43:03;;;;;;;3.90;2.10;;;24.10;34.00;;;;;;6161553;28;81154;-67
2021/10/23 00:46:04;;;;;;;3.75;1.77;;;24.10;33.90;;;;;;6162277;28;80477;-68
2021/10/23 00:49:04;;;;;;;3.03;1.77;;;24.10;33.90;;;;;;6160836;28;80167;-68
2021/10/23 00:52:05;;;;;;;3.63;2.00;;;24.10;34.00;;;;;;6160954;28;80398;-68
2021/10/23 00:55:05;;;;;;;5.53;2.45;;;24.10;34.00;;;;;;6159400;28;80294;-68
2021/10/23 00:58:06;;;;;;;3.33;1.83;;;24.10;34.00;;;;;;6162375;28;80499;-68
2021/10/23 01:01:06;;;;;;;2.83;1.90;;;24.10;34.10;;;;;;6161518;28;80468;-68
2021/10/23 01:04:07;;;;;;;2.15;1.50;;;24.10;34.10;;;;;;6161030;28;80390;-68
2021/10/23 01:07:07;;;;;;;2.10;1.52;;;24.10;34.10;;;;;;6165243;28;80182;-68
2021/10/23 01:10:08;;;;;;;3.40;1.83;;;24.10;34.10;;;;;;6142215;28;82590;-68
2021/10/23 01:13:08;;;;;;;2.55;1.70;;;24.10;34.20;;;;;;6161512;28;80469;-68
2021/10/23 01:16:11;;;;;;;3.50;1.80;;;24.10;34.20;;;;;;6160488;28;80410;-68
2021/10/23 01:19:12;;;;;;;4.68;1.85;;;24.10;34.20;;;;;;6160355;28;82642;-68
2021/10/23 01:22:12;;;;;;;2.85;1.70;;;24.10;34.40;;;;;;6160249;28;80587;-67
2021/10/23 01:25:13;;;;;;;4.85;2.08;;;24.10;34.40;;;;;;6161548;28;81938;-68
2021/10/23 01:28:13;;;;;;;4.22;2.17;;;24.10;34.30;;;;;;6160645;28;81650;-68
2021/10/23 01:31:14;;;;;;;4.82;2.25;;;24.10;34.50;;;;;;6162629;28;80361;-67
2021/10/23 01:34:14;;;;;;;2.88;1.80;;;24.10;34.40;;;;;;6160358;28;80992;-67
2021/10/23 01:37:15;;;;;;;3.50;2.20;;;24.10;34.40;;;;;;6161070;28;80879;-67
2021/10/23 01:40:15;;;;;;;2.50;1.73;;;24.10;34.40;;;;;;6160359;28;81905;-67
2021/10/23 01:43:16;;;;;;;3.20;1.70;;;24.10;34.30;;;;;;6156480;28;80385;-67
2021/10/23 01:46:17;;;;;;;4.03;1.70;;;24.10;34.50;;;;;;6160995;28;81838;-67
2021/10/23 01:49:18;;;;;;;2.85;2.05;;;24.10;34.40;;;;;;6160842;28;80410;-67
2021/10/23 01:52:18;;;;;;;3.35;1.63;;;24.10;34.50;;;;;;6163378;28;81576;-67
2021/10/23 01:55:19;;;;;;;2.78;1.50;;;24.10;34.80;;;;;;6160339;28;80559;-67
2021/10/23 01:58:19;;;;;;;3.33;1.67;;;24.10;34.70;;;;;;6162929;28;80404;-68
2021/10/23 02:01:20;;;;;;;3.70;2.13;;;24.10;35.10;;;;;;6161506;28;80420;-66
2021/10/23 02:04:20;;;;;;;2.90;1.80;;;24.10;34.80;;;;;;6159841;28;81169;-67
2021/10/23 02:07:21;;;;;;;4.43;1.73;;;24.10;34.80;;;;;;6152522;28;81198;-67
2021/10/23 02:10:22;;;;;;;5.10;2.35;;;24.10;34.90;;;;;;6162727;28;81951;-68
2021/10/23 02:13:22;;;;;;;3.03;1.65;;;24.10;34.90;;;;;;6160497;28;85213;-69
2021/10/23 02:16:23;;;;;;;3.05;1.90;;;24.10;34.90;;;;;;6160381;28;81413;-67
2021/10/23 02:19:23;;;;;;;3.58;1.90;;;24.00;34.80;;;;;;6159297;28;80887;-68
2021/10/23 02:22:24;;;;;;;3.00;2.15;;;24.10;34.90;;;;;;6160782;28;80768;-68
2021/10/23 02:25:24;;;;;;;5.10;1.75;;;24.10;35.10;;;;;;6158318;28;80925;-68
2021/10/23 02:28:25;;;;;;;4.63;2.10;;;24.10;35.20;;;;;;6160405;28;81006;-67
2021/10/23 02:31:25;;;;;;;4.32;1.88;;;24.10;35.00;;;;;;6158507;28;80752;-67
2021/10/23 02:34:26;;;;;;;3.90;2.00;;;24.10;35.10;;;;;;6160262;28;80910;-67
2021/10/23 02:37:27;;;;;;;5.22;2.15;;;24.10;34.80;;;;;;6142633;28;81245;-67
2021/10/23 02:40:27;;;;;;;4.43;1.90;;;24.10;34.80;;;;;;6158091;28;81838;-67
2021/10/23 02:43:28;;;;;;;2.38;1.70;;;24.10;34.80;;;;;;6135893;28;81696;-67
2021/10/23 02:46:29;;;;;;;3.85;2.00;;;24.20;34.90;;;;;;6159163;28;82889;-68
2021/10/23 02:49:29;;;;;;;3.13;1.80;;;24.20;35.20;;;;;;6147717;28;80728;-67
2021/10/23 02:52:30;;;;;;;2.45;1.80;;;24.20;35.30;;;;;;6158348;28;80990;-67
2021/10/23 02:55:30;;;;;;;3.30;1.85;;;24.30;35.40;;;;;;6157776;28;80250;-67
2021/10/23 02:58:31;;;;;;;3.33;1.70;;;24.30;35.50;;;;;;6165787;28;80829;-67
2021/10/23 03:01:32;;;;;;;6.75;1.70;;;24.30;35.60;;;;;;6142694;28;81768;-66
2021/10/23 03:04:33;;;;;;;3.03;1.73;;;24.30;35.70;;;;;;6157451;28;80671;-68
2021/10/23 03:07:33;;;;;;;4.30;2.17;;;24.30;35.70;;;;;;6158139;28;82468;-67
2021/10/23 03:10:34;;;;;;;3.10;2.00;;;24.30;35.60;;;;;;6159480;28;80572;-68
2021/10/23 03:13:34;;;;;;;3.15;1.50;;;24.30;35.60;;;;;;6157774;28;80339;-68
2021/10/23 03:16:36;;;;;;;4.43;1.98;;;24.30;35.60;;;;;;6160152;28;80913;-67
2021/10/23 03:19:36;;;;;;;2.25;1.60;;;24.40;35.80;;;;;;6158734;28;80516;-67
2021/10/23 03:22:37;;;;;;;3.50;1.88;;;24.40;35.80;;;;;;6158609;28;80725;-67
2021/10/23 03:25:37;;;;;;;3.83;1.90;;;24.40;35.60;;;;;;6164085;28;80913;-67
2021/10/23 03:28:38;;;;;;;2.70;2.00;;;24.40;35.80;;;;;;6158460;28;80566;-67
2021/10/23 03:31:38;;;;;;;4.72;2.03;;;24.40;35.70;;;;;;6157203;28;80596;-67
2021/10/23 03:34:39;;;;;;;4.20;2.10;;;24.40;35.60;;;;;;6157482;28;80635;-67
2021/10/23 03:37:39;;;;;;;2.63;1.60;;;24.40;35.60;;;;;;6159271;28;80992;-67
2021/10/23 03:40:41;;;;;;;3.47;1.83;;;24.40;35.60;;;;;;6158565;28;81634;-68
2021/10/23 03:43:41;;;;;;;4.22;2.15;;;24.40;35.70;;;;;;6140454;28;83034;-68
2021/10/23 03:46:42;;;;;;;2.92;1.90;;;24.40;35.80;;;;;;6159075;28;87855;-68
2021/10/23 03:49:42;;;;;;;2.65;1.83;;;24.40;35.80;;;;;;6160273;28;81218;-68
2021/10/23 03:52:43;;;;;;;2.88;1.70;;;24.40;35.80;;;;;;6159032;28;80445;-67
2021/10/23 03:55:46;;;;;;;3.33;1.88;;;24.40;35.70;;;;;;6169168;28;80527;-68
2021/10/23 03:58:47;;;;;;;3.30;1.85;;;24.40;35.90;;;;;;6161710;28;81783;-67
2021/10/23 04:01:48;;;;;;;4.63;1.67;;;24.40;35.80;;;;;;6163195;28;80317;-65
2021/10/23 04:04:48;;;;;;;2.25;1.83;;;24.40;35.80;;;;;;6162267;28;80427;-67
2021/10/23 04:07:49;;;;;;;3.10;1.70;;;24.40;36.00;;;;;;6161804;28;82351;-67
2021/10/23 04:10:49;;;;;;;2.35;1.90;;;24.40;35.90;;;;;;6161355;28;80421;-67
2021/10/23 04:13:50;;;;;;;4.45;1.83;;;24.40;35.80;;;;;;6161560;28;80582;-67
2021/10/23 04:16:50;;;;;;;2.90;1.85;;;24.40;36.00;;;;;;6161165;28;82318;-67
2021/10/23 04:19:51;;;;;;;3.42;1.80;;;24.40;36.00;;;;;;6161596;28;80902;-67
2021/10/23 04:22:51;;;;;;;3.30;1.77;;;24.40;36.10;;;;;;6163734;28;80330;-68
2021/10/23 04:25:52;;;;;;;5.07;2.00;;;24.40;36.30;;;;;;6157573;28;82490;-66
2021/10/23 04:28:52;;;;;;;3.53;2.00;;;24.40;36.30;;;;;;6159701;28;80575;-67
2021/10/23 04:31:53;;;;;;;3.63;2.15;;;24.40;36.20;;;;;;6143384;28;81066;-66
2021/10/23 04:34:53;;;;;;;5.32;2.22;;;24.50;36.40;;;;;;6162785;28;80580;-65
2021/10/23 04:37:54;;;;;;;3.47;1.55;;;24.40;36.40;;;;;;6158389;28;80465;-66
2021/10/23 04:40:54;;;;;;;6.70;2.05;;;24.40;36.70;;;;;;6160671;28;80776;-64
2021/10/23 04:43:55;;;;;;;3.03;1.65;;;24.40;37.40;;;;;;6162379;28;80641;-65
2021/10/23 04:46:55;;;;;;;9.05;2.78;;;24.50;37.50;;;;;;6160753;28;80389;-65
2021/10/23 04:49:56;;;;;;;2.45;1.70;;;24.40;38.10;;;;;;6159800;28;80604;-64
2021/10/23 04:52:56;;;;;;;4.78;1.85;;;24.40;37.90;;;;;;6155301;28;80330;-63
2021/10/23 04:55:57;;;;;;;2.45;1.75;;;24.40;38.70;;;;;;6159189;28;80512;-65
2021/10/23 04:58:57;;;;;;;5.60;2.47;;;24.30;39.20;;;;;;6161914;28;80836;-66
2021/10/23 05:01:58;;;;;;;8.07;2.30;;;24.30;40.00;;;;;;6163541;28;80814;-65
2021/10/23 05:04:58;;;;;;;4.05;2.17;;;24.30;40.40;;;;;;6148423;28;82439;-65
2021/10/23 05:07:59;;;;;;;337.95;106.25;;;24.20;41.00;;;;;;6159570;28;81085;-65
2021/10/23 05:10:59;;;;;;;441.88;144.35;;;24.20;41.50;;;;;;6155485;28;85669;-65
2021/10/23 05:14:00;;;;;;;461.42;147.25;;;24.20;41.60;;;;;;6154330;28;85791;-64
2021/10/23 05:17:01;;;;;;;423.50;142.35;;;24.20;41.90;;;;;;6153932;28;85607;-64
2021/10/23 05:20:01;;;;;;;364.20;119.97;;;24.20;41.70;;;;;;6154580;28;88481;-64
2021/10/23 05:23:02;;;;;;;310.73;105.97;;;24.20;41.70;;;;;;6153205;28;92000;-64
2021/10/23 05:26:02;;;;;;;273.98;89.55;;;24.30;41.90;;;;;;6152215;28;85792;-64
2021/10/23 05:29:03;;;;;;;243.82;79.53;;;24.30;42.20;;;;;;6156344;28;85304;-64
2021/10/23 05:32:03;;;;;;;234.38;75.07;;;24.20;42.40;;;;;;6157847;28;83510;-63
2021/10/23 05:35:04;;;;;;;195.40;64.57;;;24.30;42.50;;;;;;6159018;28;83079;-63
2021/10/23 05:38:04;;;;;;;173.50;61.00;;;24.30;42.40;;;;;;6155889;28;82957;-64
2021/10/23 05:41:05;;;;;;;166.68;55.28;;;24.20;42.30;;;;;;6157167;28;83268;-63
2021/10/23 05:44:05;;;;;;;159.27;52.15;;;24.20;43.30;;;;;;6156587;28;84206;-61
2021/10/23 05:47:06;;;;;;;134.02;46.00;;;24.30;43.10;;;;;;6154025;28;83290;-62
2021/10/23 05:50:07;;;;;;;117.95;41.80;;;24.30;43.40;;;;;;6150999;28;83976;-63
2021/10/23 05:53:08;;;;;;;119.20;39.13;;;24.30;43.40;;;;;;6136326;28;83177;-64
2021/10/23 05:56:08;;;;;;;109.32;38.15;;;24.20;43.90;;;;;;6156609;28;83093;-64
2021/10/23 05:59:14;;;;;;;96.88;35.55;;;24.20;44.80;;;;;;6156512;28;85792;-64
2021/10/23 06:02:24;;;;;;;103.63;34.97;;;24.20;44.60;;;;;;6154579;28;83089;-64
2021/10/23 06:05:25;;;;;;;79.20;27.35;;;24.30;45.00;;;;;;6151411;28;83326;-63
2021/10/23 06:08:25;;;;;;;84.03;28.23;;;24.30;45.70;;;;;;6137005;28;83215;-65
2021/10/23 06:11:26;;;;;;;83.15;26.98;;;24.30;45.20;;;;;;6155224;28;83275;-63
2021/10/23 06:14:26;;;;;;;80.88;27.00;;;24.20;45.70;;;;;;6155307;28;83187;-63
2021/10/23 06:17:27;;;;;;;84.70;25.50;;;24.10;45.80;;;;;;6156416;28;83732;-63
2021/10/23 06:20:28;;;;;;;68.60;23.27;;;24.20;46.10;;;;;;6156292;28;83532;-63
2021/10/23 06:23:31;;;;;;;63.53;23.17;;;24.20;46.10;;;;;;6154198;28;84321;-64
2021/10/23 06:26:31;;;;;;;76.15;23.98;;;24.30;46.10;;;;;;6157053;28;83022;-64
2021/10/23 06:29:32;;;;;;;66.93;22.90;;;24.30;46.40;;;;;;6159953;28;83669;-65
2021/10/23 06:32:32;;;;;;;54.60;21.50;;;24.20;46.20;;;;;;6157098;28;83123;-63
2021/10/23 06:35:33;;;;;;;54.08;19.60;;;24.30;45.90;;;;;;6156181;28;83249;-64
2021/10/23 06:38:33;;;;;;;55.97;19.17;;;24.30;45.90;;;;;;6155838;28;83503;-64
2021/10/23 06:41:37;;;;;;;46.97;17.77;;;24.30;45.80;;;;;;6156625;28;83112;-65
2021/10/23 06:44:43;;;;;;;59.53;17.17;;;24.40;45.90;;;;;;6152322;28;83145;-65
2021/10/23 06:47:43;;;;;;;45.72;16.30;;;24.30;45.60;;;;;;6137178;28;84098;-64
2021/10/23 06:50:44;;;;;;;41.75;15.93;;;24.20;45.90;;;;;;6151981;28;83083;-65
2021/10/23 06:53:44;;;;;;;45.03;15.70;;;24.20;46.30;;;;;;6161785;28;83316;-65
2021/10/23 06:56:45;;;;;;;37.65;15.05;;;24.10;46.30;;;;;;6135837;28;83406;-65
2021/10/23 06:59:45;;;;;;;42.03;15.60;;;24.10;46.40;;;;;;6139632;28;83142;-65
2021/10/23 07:02:47;;;;;;;38.00;13.70;;;24.10;47.00;;;;;;6154375;28;84176;-65
2021/10/23 07:05:48;;;;;;;35.30;13.32;;;24.10;46.70;;;;;;6154559;28;83748;-66
2021/10/23 07:08:48;;;;;;;35.17;12.77;;;24.20;46.80;;;;;;6154827;28;83182;-67
2021/10/23 07:11:49;;;;;;;38.50;13.27;;;24.30;47.00;;;;;;6154280;28;83192;-67
2021/10/23 07:14:50;;;;;;;29.10;12.00;;;24.40;47.40;;;;;;6151138;28;83819;-66
2021/10/23 07:17:51;;;;;;;31.45;11.55;;;24.40;48.20;;;;;;6155517;28;83163;-68
2021/10/23 07:20:51;;;;;;;30.92;11.60;;;24.40;48.20;;;;;;6152617;28;84567;-68
2021/10/23 07:23:53;;;;;;;25.15;10.52;;;24.50;48.10;;;;;;6150854;28;84161;-66
2021/10/23 07:26:54;;;;;;;27.08;10.45;;;24.50;48.20;;;;;;6149466;28;83479;-63
2021/10/23 07:29:54;;;;;;;26.73;10.57;;;24.50;48.40;;;;;;6155203;28;83072;-64
2021/10/23 07:32:55;;;;;;;28.45;10.50;;;24.50;48.50;;;;;;6153557;28;83352;-63
2021/10/23 07:35:57;;;;;;;26.88;10.30;;;24.50;49.10;;;;;;6138085;28;84340;-67
2021/10/23 07:38:58;;;;;;;22.30;8.98;;;24.50;48.50;;;;;;6154439;28;83233;-65
2021/10/23 07:41:58;;;;;;;26.05;9.13;;;24.60;48.60;;;;;;6157920;28;83336;-68
2021/10/23 07:44:59;;;;;;;21.45;9.02;;;24.60;48.60;;;;;;6152659;28;80960;-68
2021/10/23 07:47:59;;;;;;;22.35;8.15;;;24.60;48.30;;;;;;6155205;28;82822;-66
2021/10/23 07:51:00;;;;;;;23.17;8.25;;;24.60;47.90;;;;;;6148720;28;80441;-66
2021/10/23 07:54:00;;;;;;;19.77;7.55;;;24.60;48.00;;;;;;6151848;28;80404;-67
2021/10/23 07:57:01;;;;;;;20.17;7.78;;;24.60;48.10;;;;;;6155999;28;80795;-66
2021/10/23 08:00:01;;;;;;;20.55;8.15;;;24.50;48.20;;;;;;6157147;28;82487;-66
2021/10/23 08:03:02;;;;;;;21.63;7.95;;;24.50;48.20;;;;;;6157947;28;80378;-66
2021/10/23 08:06:02;;;;;;;17.90;8.00;;;24.40;48.50;;;;;;6157850;28;80296;-66
2021/10/23 08:09:11;;;;;;;19.95;7.63;;;24.40;48.70;;;;;;6162627;28;82065;-66
2021/10/23 08:12:11;;;;;;;14.55;6.40;;;24.40;48.70;;;;;;6156808;28;80810;-66
2021/10/23 08:15:12;;;;;;;16.10;7.22;;;24.40;48.70;;;;;;6148603;28;83101;-67
2021/10/23 08:18:14;;;;;;;14.23;6.88;;;24.40;48.90;;;;;;6157299;28;80517;-66
2021/10/23 08:21:15;;;;;;;17.08;7.10;;;24.40;48.80;;;;;;6157489;28;80502;-67
2021/10/23 08:24:16;;;;;;;16.60;6.22;;;24.40;49.00;;;;;;6156578;28;80591;-67
2021/10/23 08:27:16;;;;;;;14.73;5.82;;;24.40;48.90;;;;;;6155659;28;80513;-67
2021/10/23 08:30:17;;;;;;;15.15;6.10;;;24.70;48.00;;;;;;6142523;28;81811;-67
2021/10/23 08:33:17;;;;;;;12.65;5.57;;;24.90;46.10;;;;;;6156912;28;80801;-65
2021/10/23 08:36:18;;;;;;;16.23;6.40;;;24.90;45.10;;;;;;6156914;28;80600;-66
2021/10/23 08:39:18;;;;;;;13.70;5.90;;;25.10;44.80;;;;;;6158612;28;80427;-66
2021/10/23 08:42:19;;;;;;;11.52;4.78;;;25.10;44.30;;;;;;6160741;28;80492;-66
2021/10/23 08:45:19;;;;;;;12.05;5.82;;;25.10;44.20;;;;;;6161149;28;80893;-66
2021/10/23 08:48:20;;;;;;;14.52;5.90;;;25.20;44.30;;;;;;6155243;28;80823;-66
2021/10/23 08:51:20;;;;;;;11.27;5.78;;;25.20;44.20;;;;;;6157924;28;80745;-65
2021/10/23 08:54:21;;;;;;;14.07;5.88;;;25.20;44.10;;;;;;6160299;28;80991;-66
2021/10/23 08:57:25;;;;;;;10.73;4.78;;;25.10;43.90;;;;;;6159951;28;80396;-66
2021/10/23 09:00:25;;;;;;;13.27;5.55;;;25.20;43.60;;;;;;6161116;28;80059;-66
2021/10/23 09:03:26;;;;;;;12.90;5.32;;;25.20;43.30;;;;;;6150918;28;80759;-66
2021/10/23 09:06:26;;;;;;;12.95;5.30;;;25.10;43.10;;;;;;6163645;28;82114;-66
2021/10/23 09:09:27;;;;;;;11.20;4.72;;;25.20;43.10;;;;;;6161385;28;80338;-66
2021/10/23 09:12:27;;;;;;;12.48;4.93;;;25.10;42.90;;;;;;6143234;28;81426;-65
2021/10/23 09:15:29;;;;;;;13.10;5.78;;;25.10;42.90;;;;;;6160653;28;81073;-65
2021/10/23 09:18:29;;;;;;;17.10;4.97;;;25.20;42.90;;;;;;6159404;28;80301;-66
2021/10/23 09:21:30;;;;;;;10.93;4.82;;;25.20;42.40;;;;;;6161170;28;81398;-65
2021/10/23 09:24:30;;;;;;;13.05;4.47;;;25.30;42.20;;;;;;6161486;28;80331;-67
2021/10/23 09:27:31;;;;;;;11.63;4.00;;;25.40;42.00;;;;;;6160779;28;80545;-66
2021/10/23 09:30:31;;;;;;;11.43;4.38;;;25.50;40.90;;;;;;6159845;28;81841;-67
2021/10/23 09:33:33;;;;;;;14.57;4.05;;;25.50;40.20;;;;;;6160371;28;80642;-66
2021/10/23 09:36:33;;;;;;;7.72;3.60;;;25.50;39.00;;;;;;6159362;28;80848;-66
2021/10/23 09:39:34;;;;;;;10.93;4.00;;;25.60;39.40;;;;;;6159083;28;81383;-66
2021/10/23 09:42:35;;;;;;;10.85;4.57;;;25.70;39.20;;;;;;6143350;28;80661;-67
2021/10/23 09:45:35;;;;;;;13.95;4.38;;;25.60;38.20;;;;;;6160217;28;80677;-68
2021/10/23 09:48:36;;;;;;;8.23;3.80;;;25.60;38.10;;;;;;6143579;28;81039;-67
2021/10/23 09:51:38;;;;;;;10.35;3.63;;;25.60;38.10;;;;;;6158391;28;80401;-68
2021/10/23 09:54:39;;;;;;;7.57;3.17;;;25.70;37.30;;;;;;6160041;28;80543;-67
2021/10/23 09:57:39;;;;;;;10.13;3.50;;;25.70;36.50;;;;;;6159250;28;80593;-68
2021/10/23 10:00:40;;;;;;;8.85;3.05;;;25.80;36.40;;;;;;6159755;28;80564;-68
2021/10/23 10:03:40;;;;;;;11.73;3.30;;;25.90;35.80;;;;;;6158869;28;80503;-69
2021/10/23 10:06:41;;;;;;;9.57;3.22;;;25.90;35.70;;;;;;6158349;28;81010;-68
2021/10/23 10:09:41;;;;;;;7.35;3.40;;;26.00;35.20;;;;;;6158237;28;80162;-68
2021/10/23 10:12:42;;;;;;;8.43;2.90;;;26.00;35.20;;;;;;6160538;28;86960;-69
2021/10/23 10:15:42;;;;;;;9.93;3.33;;;25.90;34.50;;;;;;6160593;28;81421;-67
2021/10/23 10:18:43;;;;;;;8.05;2.50;;;25.90;34.40;;;;;;6159537;28;81219;-66
2021/10/23 10:21:43;;;;;;;9.48;3.00;;;25.90;34.30;;;;;;6159344;28;80682;-65
2021/10/23 10:24:44;;;;;;;11.15;4.03;;;25.80;33.70;;;;;;6159324;28;81677;-66
2021/10/23 10:27:44;;;;;;;12.50;3.78;;;25.70;33.60;;;;;;6161173;28;80812;-66
2021/10/23 10:30:47;;;;;;;11.23;4.35;;;25.70;33.20;;;;;;6157939;28;82143;-67
2021/10/23 10:33:55;;;;;;;9.40;3.38;;;25.50;33.50;;;;;;6159557;28;81612;-67
2021/10/23 10:36:59;;;;;;;10.93;3.78;;;25.50;33.10;;;;;;6140208;28;81146;-67
2021/10/23 10:40:12;;;;;;;11.68;4.10;;;25.40;33.10;;;;;;6155677;28;80999;-67
2021/10/23 10:43:13;;;;;;;10.50;4.25;;;25.30;32.50;;;;;;6158321;28;81737;-65
2021/10/23 10:46:14;;;;;;;18.48;4.63;;;25.10;32.20;;;;;;6159272;28;83233;-66
2021/10/23 10:49:14;;;;;;;6.85;2.80;;;24.70;32.40;;;;;;6158240;28;80444;-65
2021/10/23 10:52:15;;;;;;;9.55;3.22;;;24.70;32.10;;;;;;6159396;28;80774;-66
2021/10/23 10:55:16;;;;;;;10.02;3.65;;;24.70;32.00;;;;;;6154500;28;80582;-65
2021/10/23 10:58:16;;;;;;;9.15;3.25;;;24.60;32.20;;;;;;6157851;28;80546;-65
2021/10/23 11:01:19;;;;;;;9.85;4.35;;;24.70;32.80;;;;;;6159753;28;81054;-64
2021/10/23 11:04:19;;;;;;;11.27;3.80;;;24.70;32.50;;;;;;6156880;28;80409;-64
2021/10/23 11:07:20;;;;;;;9.32;3.50;;;24.80;32.40;;;;;;6147834;28;80888;-65
2021/10/23 11:10:20;;;;;;;9.95;3.83;;;24.90;32.30;;;;;;6156675;28;82830;-67
2021/10/23 11:13:21;;;;;;;11.50;3.80;;;25.00;32.40;;;;;;6156507;28;81368;-66
2021/10/23 11:16:21;;;;;;;10.68;3.80;;;24.90;32.70;;;;;;6153867;28;80329;-65
2021/10/23 11:19:22;;;;;;;9.20;3.63;;;24.80;32.60;;;;;;6158632;28;80402;-65
2021/10/23 11:22:23;;;;;;;16.17;4.65;;;24.60;32.60;;;;;;6142364;28;87687;-66
2021/10/23 11:25:23;;;;;;;11.60;4.53;;;24.50;32.50;;;;;;6159441;28;80398;-65
2021/10/23 11:28:24;;;;;;;13.98;3.67;;;24.20;32.70;;;;;;6158197;28;83288;-67
2021/10/23 11:31:24;;;;;;;10.77;3.78;;;24.00;33.10;;;;;;6156376;28;82085;-66
2021/10/23 11:34:25;;;;;;;12.15;4.13;;;24.10;33.20;;;;;;6160532;28;80672;-66
2021/10/23 11:37:25;;;;;;;9.43;4.13;;;23.80;33.10;;;;;;6156987;28;80284;-68
2021/10/23 11:40:26;;;;;;;12.10;3.83;;;23.90;33.80;;;;;;6158777;28;81117;-64
2021/10/23 11:43:26;;;;;;;10.13;3.97;;;23.90;33.70;;;;;;6163822;28;80597;-65
2021/10/23 11:46:27;;;;;;;9.27;3.55;;;23.80;33.80;;;;;;6159337;28;80712;-66
2021/10/23 11:49:28;;;;;;;10.07;3.47;;;23.70;33.80;;;;;;6157916;28;80650;-65
2021/10/23 11:52:28;;;;;;;8.35;3.35;;;23.60;33.90;;;;;;6157767;28;80720;-64
2021/10/23 11:55:29;;;;;;;7.68;3.22;;;23.60;34.00;;;;;;6157236;28;81082;-67
2021/10/23 11:58:30;;;;;;;10.18;4.47;;;23.10;34.10;;;;;;6157620;28;81547;-65
2021/10/23 12:01:31;;;;;;;9.40;4.25;;;22.30;34.40;;;;;;6158453;28;80858;-66
2021/10/23 12:04:31;;;;;;;7.50;3.58;;;22.50;34.70;;;;;;6147046;28;80863;-66
2021/10/23 12:07:32;;;;;;;11.65;3.92;;;22.10;34.30;;;;;;6157879;28;83052;-68
2021/10/23 12:10:32;;;;;;;7.35;3.05;;;21.60;35.70;;;;;;6157060;28;80544;-67
2021/10/23 12:13:33;;;;;;;7.63;3.55;;;22.20;35.90;;;;;;6159598;28;80784;-67
2021/10/23 12:16:36;;;;;;;11.80;3.28;;;22.60;36.30;;;;;;6162798;28;80806;-67
2021/10/23 12:19:36;;;;;;;7.07;3.65;;;22.90;36.00;;;;;;6160648;28;80177;-67
2021/10/23 12:22:37;;;;;;;13.65;3.33;;;23.20;35.70;;;;;;6160973;28;80373;-66
2021/10/23 12:25:39;;;;;;;17.77;3.70;;;23.40;35.30;;;;;;6154875;28;80976;-66
2021/10/23 12:28:40;;;;;;;9.30;2.97;;;23.50;35.40;;;;;;6143538;28;84085;-68
2021/10/23 12:31:41;;;;;;;7.97;3.42;;;23.80;35.50;;;;;;6133961;28;80880;-68
2021/10/23 12:34:41;;;;;;;9.23;3.50;;;24.00;35.40;;;;;;6154990;28;81842;-68
2021/10/23 12:37:42;;;;;;;7.43;3.35;;;24.30;35.10;;;;;;6151453;28;81347;-67
2021/10/23 12:40:42;;;;;;;8.73;4.00;;;24.40;34.80;;;;;;6156632;28;81514;-68
2021/10/23 12:43:43;;;;;;;8.20;3.80;;;24.50;35.20;;;;;;6160494;28;80859;-68
2021/10/23 12:46:43;;;;;;;6.88;3.58;;;24.60;35.40;;;;;;6150654;28;80835;-67
2021/10/23 12:49:44;;;;;;;7.57;3.45;;;24.60;35.00;;;;;;6164420;28;81310;-68
2021/10/23 12:52:45;;;;;;;6.88;3.20;;;24.60;35.40;;;;;;6159451;28;81150;-67
2021/10/23 12:55:47;;;;;;;8.15;3.47;;;24.70;35.50;;;;;;6144600;28;81675;-69
2021/10/23 12:58:48;;;;;;;7.38;3.33;;;24.70;35.90;;;;;;6161219;28;81208;-68
2021/10/23 13:01:48;;;;;;;5.57;3.20;;;24.70;35.80;;;;;;6156582;28;80349;-69
2021/10/23 13:04:49;;;;;;;7.10;3.28;;;24.60;36.00;;;;;;6157329;28;80577;-69
2021/10/23 13:07:50;;;;;;;10.73;4.03;;;24.60;35.90;;;;;;6143555;28;80567;-69
2021/10/23 13:10:50;;;;;;;8.25;3.40;;;24.60;35.80;;;;;;6159069;28;80709;-69
2021/10/23 13:13:51;;;;;;;9.15;3.60;;;24.60;36.10;;;;;;6153663;28;81644;-71
2021/10/23 13:16:51;;;;;;;7.97;3.88;;;24.60;36.10;;;;;;6142365;28;81005;-69
2021/10/23 13:19:52;;;;;;;7.65;3.97;;;24.60;36.30;;;;;;6154119;28;81663;-70
2021/10/23 13:22:53;;;;;;;6.82;3.80;;;24.60;36.30;;;;;;6155351;28;80808;-71
2021/10/23 13:25:53;;;;;;;8.00;3.75;;;24.50;36.40;;;;;;6154523;28;80841;-67
2021/10/23 13:28:54;;;;;;;6.32;3.55;;;24.50;36.00;;;;;;6134627;28;83356;-72
2021/10/23 13:31:55;;;;;;;6.72;3.67;;;24.50;36.20;;;;;;6155119;28;81984;-70
2021/10/23 13:34:56;;;;;;;5.90;2.95;;;24.50;36.40;;;;;;6154965;28;80860;-69
2021/10/23 13:37:56;;;;;;;4.55;2.63;;;24.40;36.20;;;;;;6157149;28;82278;-69
2021/10/23 13:40:57;;;;;;;5.78;2.95;;;24.40;36.30;;;;;;6139554;28;81451;-68
2021/10/23 13:43:58;;;;;;;7.32;3.05;;;24.30;36.30;;;;;;6151838;28;80649;-68
2021/10/23 13:46:58;;;;;;;7.22;3.25;;;24.30;36.30;;;;;;6159819;28;80602;-69
2021/10/23 13:49:58;;;;;;;6.70;2.92;;;24.30;36.40;;;;;;6164051;28;81019;-68
2021/10/23 13:52:59;;;;;;;5.80;3.08;;;24.30;36.50;;;;;;6157327;28;80751;-70
2021/10/23 13:56:00;;;;;;;4.72;2.67;;;24.30;36.50;;;;;;6157745;28;81753;-67
2021/10/23 13:59:00;;;;;;;5.25;2.42;;;24.20;36.40;;;;;;6156708;28;80760;-65
2021/10/23 14:02:01;;;;;;;5.47;2.90;;;24.20;36.50;;;;;;6157082;28;80684;-64
2021/10/23 14:05:01;;;;;;;7.50;2.83;;;24.20;36.90;;;;;;6140103;28;82092;-64
2021/10/23 14:08:02;;;;;;;7.15;3.00;;;24.20;37.20;;;;;;6138808;28;80579;-65
2021/10/23 14:11:03;;;;;;;6.85;3.03;;;24.30;37.60;;;;;;6154770;28;80870;-65
2021/10/23 14:14:03;;;;;;;6.88;3.47;;;24.30;37.40;;;;;;6153848;28;80115;-64
2021/10/23 14:17:04;;;;;;;4.72;2.72;;;24.30;37.60;;;;;;6143331;28;80396;-64
2021/10/23 14:20:05;;;;;;;5.43;2.80;;;24.30;37.50;;;;;;6158808;28;80012;-66
2021/10/23 14:23:15;;;;;;;8.63;2.83;;;24.30;37.90;;;;;;6159082;28;80542;-65
2021/10/23 14:26:17;;;;;;;6.47;2.65;;;24.30;38.00;;;;;;6158979;28;80561;-66
2021/10/23 14:29:18;;;;;;;5.50;3.05;;;24.30;37.70;;;;;;6158992;28;80517;-66
2021/10/23 14:32:18;;;;;;;6.82;2.65;;;24.30;38.00;;;;;;6157564;28;80623;-66
2021/10/23 14:35:19;;;;;;;8.43;3.40;;;24.30;38.00;;;;;;6160090;28;81006;-66
2021/10/23 14:38:20;;;;;;;7.60;3.20;;;24.30;37.80;;;;;;6159977;28;81235;-66
2021/10/23 14:41:20;;;;;;;7.72;3.45;;;24.30;37.90;;;;;;6158833;28;80804;-64
2021/10/23 14:44:21;;;;;;;9.15;3.47;;;24.30;38.40;;;;;;6161893;28;80816;-65
2021/10/23 14:47:21;;;;;;;7.07;3.55;;;24.30;38.40;;;;;;6140774;28;80404;-65
2021/10/23 14:50:22;;;;;;;6.55;3.25;;;24.30;38.80;;;;;;6160014;28;80416;-64
2021/10/23 14:53:24;;;;;;;9.27;3.70;;;24.30;38.30;;;;;;6152253;28;81115;-65
2021/10/23 14:56:24;;;;;;;6.22;3.20;;;24.30;38.60;;;;;;6158001;28;80345;-65
2021/10/23 14:59:25;;;;;;;5.65;3.10;;;24.20;38.70;;;;;;6158901;28;80579;-66
2021/10/23 15:02:25;;;;;;;6.85;3.40;;;24.20;38.80;;;;;;6158448;28;80675;-65
2021/10/23 15:05:26;;;;;;;14.77;3.53;;;24.20;38.90;;;;;;6141836;28;80686;-65
2021/10/23 15:08:26;;;;;;;7.03;3.50;;;24.20;38.70;;;;;;6159192;28;83367;-65
2021/10/23 15:11:27;;;;;;;7.85;3.45;;;24.30;38.80;;;;;;6160206;28;80932;-64
2021/10/23 15:14:27;;;;;;;261.42;84.45;;;24.20;39.00;;;;;;6162891;28;81182;-65
2021/10/23 15:17:28;;;;;;;426.98;139.82;;;24.30;38.90;;;;;;6154538;28;83458;-63
2021/10/23 15:20:28;;;;;;;505.58;170.95;;;24.30;38.80;;;;;;6151266;28;86591;-65
2021/10/23 15:23:29;;;;;;;463.45;153.80;;;24.30;39.20;;;;;;6153103;28;85838;-65
2021/10/23 15:26:29;;;;;;;447.67;144.88;;;24.30;38.90;;;;;;6151859;28;85755;-65
2021/10/23 15:29:30;;;;;;;368.92;125.43;;;24.30;38.80;;;;;;6148745;28;86379;-63
2021/10/23 15:32:30;;;;;;;358.15;113.88;;;24.30;39.10;;;;;;6132670;28;87166;-64